Time;durP1;ratioP1;P1;durP2;ratioP2;P2;SDS_P1;SDS_P2;PMS_P1;PMS_P2;Temp;Humidity;BMP_temperature;BMP_pressure;BME280_temperature;BME280_humidity;BME280_pressure;Samples;Min_cycle;Max_cycle;Signal;HPM_P1;HPM_P2
2022/08/23 00:01:34;;;;;;;9.88;3.63;;;19.00;99.90;;;;;;5034044;28;20091;-72
2022/08/23 00:04:04;;;;;;;12.00;4.18;;;19.00;99.90;;;;;;5033967;28;20037;-72
2022/08/23 00:06:30;;;;;;;7.70;3.22;;;19.00;99.90;;;;;;5034174;28;20414;-71
2022/08/23 00:08:56;;;;;;;7.43;3.53;;;18.90;99.90;;;;;;5035369;28;20112;-71
2022/08/23 00:11:26;;;;;;;10.55;3.65;;;18.90;99.90;;;;;;5033797;28;20045;-71
2022/08/23 00:13:51;;;;;;;11.65;3.97;;;18.80;99.90;;;;;;5033783;28;20049;-71
2022/08/23 00:16:17;;;;;;;9.30;3.90;;;18.80;99.90;;;;;;5033736;28;20103;-71
2022/08/23 00:18:43;;;;;;;10.23;3.95;;;18.70;99.90;;;;;;5033605;28;20038;-71
2022/08/23 00:21:09;;;;;;;10.77;4.53;;;18.70;99.90;;;;;;5033891;28;20494;-71
2022/08/23 00:23:36;;;;;;;10.52;3.85;;;18.70;99.90;;;;;;5032560;28;20438;-71
2022/08/23 00:26:02;;;;;;;12.35;3.95;;;18.70;99.90;;;;;;5033578;28;20387;-71
2022/08/23 00:28:28;;;;;;;10.35;4.88;;;18.70;99.90;;;;;;5033455;28;20033;-71
2022/08/23 00:30:53;;;;;;;9.85;4.70;;;18.70;99.90;;;;;;5033517;28;20045;-72
2022/08/23 00:33:20;;;;;;;9.57;4.57;;;18.70;99.90;;;;;;5033673;28;20049;-72
2022/08/23 00:35:46;;;;;;;8.73;4.80;;;18.60;99.90;;;;;;5033615;28;20498;-72
2022/08/23 00:38:11;;;;;;;11.38;4.57;;;18.70;99.90;;;;;;5033125;28;20056;-72
2022/08/23 00:40:37;;;;;;;12.23;4.50;;;18.60;99.90;;;;;;5033306;28;20080;-72
2022/08/23 00:49:09;;;;;;;12.23;4.72;;;18.60;99.90;;;;;;5033093;28;20053;-71
2022/08/23 00:51:56;;;;;;;13.15;5.47;;;18.50;99.90;;;;;;5033115;28;20044;-72
2022/08/23 00:54:26;;;;;;;13.23;4.88;;;18.50;99.90;;;;;;5033123;28;20049;-72
2022/08/23 00:56:54;;;;;;;7.53;4.63;;;18.50;99.90;;;;;;5032966;28;20046;-71
2022/08/23 00:59:19;;;;;;;9.93;5.00;;;18.50;99.90;;;;;;5032927;28;20124;-71
2022/08/23 01:01:46;;;;;;;8.40;4.32;;;18.40;99.90;;;;;;5033147;28;20534;-72
2022/08/23 01:04:13;;;;;;;10.27;5.13;;;18.50;99.90;;;;;;5032854;28;20513;-72
2022/08/23 01:06:52;;;;;;;10.20;4.90;;;18.40;99.90;;;;;;5033046;28;20029;-71
2022/08/23 01:09:20;;;;;;;7.85;4.30;;;18.40;99.90;;;;;;5032816;28;20042;-71
2022/08/23 01:12:02;;;;;;;7.60;4.30;;;18.30;99.90;;;;;;5032998;28;20052;-71
2022/08/23 01:14:42;;;;;;;7.55;4.75;;;18.30;99.90;;;;;;5033028;28;20056;-71
2022/08/23 01:17:37;;;;;;;10.20;4.80;;;18.30;99.90;;;;;;5032631;28;20041;-71
2022/08/23 01:20:09;;;;;;;10.00;5.05;;;18.30;99.90;;;;;;5011511;28;20107;-71
2022/08/23 01:22:58;;;;;;;11.67;5.37;;;18.20;99.90;;;;;;5032608;28;20099;-71
2022/08/23 01:25:26;;;;;;;12.60;5.53;;;18.20;99.90;;;;;;5032528;28;20280;-71
2022/08/23 01:27:52;;;;;;;8.60;4.75;;;18.20;99.90;;;;;;5032395;28;20049;-71
2022/08/23 01:30:22;;;;;;;9.77;4.85;;;18.10;99.90;;;;;;5032641;28;20041;-71
2022/08/23 01:32:54;;;;;;;10.07;5.05;;;18.20;99.90;;;;;;5032635;28;20045;-72
2022/08/23 01:35:32;;;;;;;9.05;4.70;;;18.10;99.90;;;;;;5032164;28;20037;-72
2022/08/23 01:37:58;;;;;;;9.82;4.38;;;18.10;99.90;;;;;;5032211;28;20064;-71
2022/08/23 01:40:23;;;;;;;7.45;4.20;;;18.00;99.90;;;;;;5032537;28;20406;-72
2022/08/23 01:42:49;;;;;;;12.20;4.85;;;17.90;99.90;;;;;;5032246;28;20549;-72
2022/08/23 01:45:15;;;;;;;8.55;5.00;;;17.90;99.90;;;;;;5032150;28;20099;-71
2022/08/23 01:47:41;;;;;;;8.35;4.22;;;17.80;99.90;;;;;;5032321;28;20067;-71
2022/08/23 01:50:09;;;;;;;7.85;4.35;;;17.80;99.90;;;;;;5032362;28;20033;-71
2022/08/23 01:52:36;;;;;;;10.35;4.72;;;17.80;99.90;;;;;;5032064;28;20053;-72
2022/08/23 01:55:03;;;;;;;8.30;4.70;;;17.80;99.90;;;;;;5032050;28;20124;-72
2022/08/23 01:57:30;;;;;;;8.88;4.65;;;17.70;99.90;;;;;;5032629;28;20041;-71
2022/08/23 01:59:56;;;;;;;9.48;4.68;;;17.70;99.90;;;;;;5031987;28;20099;-72
2022/08/23 02:02:22;;;;;;;10.70;5.57;;;17.70;99.90;;;;;;5031934;28;20041;-72
2022/08/23 02:04:47;;;;;;;7.38;4.35;;;17.70;99.90;;;;;;5031937;28;20076;-72
2022/08/23 02:07:13;;;;;;;6.22;4.72;;;17.70;99.90;;;;;;5032059;28;20401;-71
2022/08/23 02:09:39;;;;;;;10.48;4.78;;;17.70;99.90;;;;;;5032074;28;20387;-71
2022/08/23 02:12:05;;;;;;;12.38;5.90;;;17.60;99.90;;;;;;5032093;28;20072;-71
2022/08/23 02:14:31;;;;;;;12.68;5.65;;;17.60;99.90;;;;;;5015419;28;20045;-71
2022/08/23 02:16:57;;;;;;;10.05;5.45;;;17.60;99.90;;;;;;5031713;28;20041;-71
2022/08/23 02:19:23;;;;;;;9.10;5.28;;;17.60;99.90;;;;;;5031707;28;20049;-71
2022/08/23 02:21:49;;;;;;;7.75;5.28;;;17.60;99.90;;;;;;5031743;28;20041;-71
2022/08/23 02:24:19;;;;;;;9.73;5.82;;;17.60;99.90;;;;;;5031716;28;20137;-71
2022/08/23 02:26:48;;;;;;;8.32;4.85;;;17.60;99.90;;;;;;5031644;28;20033;-71
2022/08/23 02:29:15;;;;;;;9.68;5.68;;;17.50;99.90;;;;;;5031692;28;20072;-71
2022/08/23 02:31:43;;;;;;;9.38;5.50;;;17.50;99.90;;;;;;5015520;28;20455;-71
2022/08/23 02:34:10;;;;;;;8.05;5.55;;;17.50;99.90;;;;;;5031659;28;20072;-71
2022/08/23 02:36:36;;;;;;;9.50;5.13;;;17.50;99.90;;;;;;5031437;28;20072;-71
2022/08/23 02:39:04;;;;;;;8.98;5.18;;;17.40;99.90;;;;;;5031604;28;20077;-72
2022/08/23 02:41:30;;;;;;;6.25;4.60;;;17.30;99.90;;;;;;5031621;28;20037;-72
2022/08/23 02:43:56;;;;;;;7.07;5.07;;;17.40;99.90;;;;;;5031532;28;20456;-71
2022/08/23 02:46:22;;;;;;;7.95;4.55;;;17.30;99.90;;;;;;5031762;28;20034;-71
2022/08/23 02:48:48;;;;;;;8.73;4.53;;;17.30;99.90;;;;;;5035621;28;20120;-71
2022/08/23 02:51:15;;;;;;;6.97;5.20;;;17.20;99.90;;;;;;5035381;28;20481;-71
2022/08/23 02:53:40;;;;;;;8.63;5.25;;;17.20;99.90;;;;;;5037145;28;20057;-71
2022/08/23 02:56:06;;;;;;;8.70;5.57;;;17.20;99.90;;;;;;5035339;28;20575;-71
2022/08/23 02:58:32;;;;;;;10.25;5.53;;;17.20;99.90;;;;;;5035042;28;20053;-71
2022/08/23 03:00:58;;;;;;;7.25;5.25;;;17.20;99.90;;;;;;5035235;28;20088;-71
2022/08/23 03:03:24;;;;;;;9.43;4.82;;;17.20;99.90;;;;;;5035155;28;20087;-71
2022/08/23 03:05:52;;;;;;;8.50;5.00;;;17.20;99.90;;;;;;5035129;28;20498;-71
2022/08/23 03:08:18;;;;;;;7.78;5.38;;;17.20;99.90;;;;;;5035021;28;20616;-71
2022/08/23 03:10:46;;;;;;;7.95;5.32;;;17.20;99.90;;;;;;5035055;28;20046;-71
2022/08/23 03:13:12;;;;;;;8.65;5.93;;;17.20;99.90;;;;;;5034993;28;20053;-71
2022/08/23 03:15:39;;;;;;;10.23;5.88;;;17.20;99.90;;;;;;5036203;28;20045;-71
2022/08/23 03:18:05;;;;;;;9.27;6.20;;;17.20;99.90;;;;;;5034743;28;20386;-71
2022/08/23 03:20:31;;;;;;;10.43;5.90;;;17.20;99.90;;;;;;5034807;28;20037;-71
2022/08/23 03:22:57;;;;;;;9.25;5.93;;;17.20;99.90;;;;;;5034725;28;20047;-71
2022/08/23 03:25:23;;;;;;;10.23;6.93;;;17.20;99.90;;;;;;5034677;28;20120;-71
2022/08/23 03:27:48;;;;;;;12.00;7.22;;;17.20;99.90;;;;;;5034584;28;20041;-71
2022/08/23 03:30:14;;;;;;;12.05;6.72;;;17.20;99.90;;;;;;5034658;28;20037;-72
2022/08/23 03:32:40;;;;;;;9.70;6.90;;;17.20;99.90;;;;;;5034874;28;20089;-71
2022/08/23 03:35:06;;;;;;;11.85;6.90;;;17.20;99.90;;;;;;5034574;28;20474;-72
2022/08/23 03:37:32;;;;;;;8.52;5.78;;;17.20;99.90;;;;;;5034491;28;20076;-71
2022/08/23 03:39:57;;;;;;;8.73;6.50;;;17.20;99.90;;;;;;5035292;28;20478;-71
2022/08/23 03:42:24;;;;;;;8.07;5.30;;;17.10;99.90;;;;;;5036218;28;20055;-72
2022/08/23 03:44:49;;;;;;;7.53;4.97;;;17.10;99.90;;;;;;5034405;28;20046;-71
2022/08/23 03:47:15;;;;;;;8.52;5.32;;;17.00;99.90;;;;;;5034507;28;20036;-71
2022/08/23 03:49:40;;;;;;;9.88;5.53;;;17.00;99.90;;;;;;5017827;28;20042;-71
2022/08/23 03:52:07;;;;;;;6.68;5.45;;;17.00;99.90;;;;;;5034271;28;20045;-71
2022/08/23 03:54:34;;;;;;;7.18;5.50;;;16.90;99.90;;;;;;5034467;28;20064;-71
2022/08/23 03:57:03;;;;;;;9.52;5.30;;;17.00;99.90;;;;;;5034382;28;20037;-71
2022/08/23 03:59:31;;;;;;;7.65;5.47;;;17.00;99.90;;;;;;5033886;28;20526;-71
2022/08/23 04:01:57;;;;;;;8.10;5.85;;;17.00;99.90;;;;;;5034088;28;20072;-71
2022/08/23 04:04:22;;;;;;;6.20;5.13;;;16.90;99.90;;;;;;5034319;28;20135;-71
2022/08/23 04:06:48;;;;;;;7.95;5.38;;;16.90;99.90;;;;;;5033888;28;20561;-71
2022/08/23 04:09:14;;;;;;;7.72;5.38;;;16.80;99.90;;;;;;5033969;28;20055;-71
2022/08/23 04:11:40;;;;;;;6.90;5.07;;;16.80;99.90;;;;;;5033927;28;20045;-71
2022/08/23 04:14:06;;;;;;;6.45;5.55;;;16.80;99.90;;;;;;5033902;28;20045;-71
2022/08/23 04:16:36;;;;;;;9.15;5.60;;;16.90;99.90;;;;;;5033985;28;20094;-71
2022/08/23 04:19:12;;;;;;;8.85;6.60;;;16.90;99.90;;;;;;5033673;28;20045;-71
2022/08/23 04:21:40;;;;;;;9.52;6.22;;;16.90;99.90;;;;;;5033737;28;20073;-71
2022/08/23 04:24:06;;;;;;;8.90;6.40;;;16.90;99.90;;;;;;5033724;28;20084;-71
2022/08/23 04:26:32;;;;;;;8.40;5.82;;;16.90;99.90;;;;;;5035350;28;20428;-71
2022/08/23 04:28:58;;;;;;;9.13;6.00;;;16.90;99.90;;;;;;5033589;28;20041;-71
2022/08/23 04:31:25;;;;;;;7.38;5.45;;;16.80;99.90;;;;;;5034740;28;20038;-71
2022/08/23 04:33:52;;;;;;;9.35;6.38;;;16.80;99.90;;;;;;5033508;28;20045;-71
2022/08/23 04:36:17;;;;;;;9.15;6.45;;;16.80;99.90;;;;;;5033364;28;20042;-72
2022/08/23 04:38:43;;;;;;;6.72;5.63;;;16.80;99.90;;;;;;5016762;28;20405;-71
2022/08/23 04:43:55;;;;;;;9.85;5.88;;;16.80;99.90;;;;;;5033321;28;20049;-71
2022/08/23 04:46:20;;;;;;;8.13;5.95;;;16.80;99.90;;;;;;5033463;28;20112;-71
2022/08/23 04:48:47;;;;;;;7.95;6.28;;;16.80;99.90;;;;;;5033127;28;20561;-71
2022/08/23 04:51:13;;;;;;;9.88;6.93;;;16.80;99.90;;;;;;5033409;28;20049;-71
2022/08/23 04:53:39;;;;;;;7.53;6.10;;;16.80;99.90;;;;;;5033114;28;20124;-71
2022/08/23 04:56:05;;;;;;;7.57;6.53;;;16.80;99.90;;;;;;5033078;28;20117;-71
2022/08/23 04:58:32;;;;;;;11.68;6.90;;;16.80;99.90;;;;;;5033007;28;20085;-71
2022/08/23 05:01:00;;;;;;;8.93;6.35;;;16.80;99.90;;;;;;5033202;28;20521;-71
2022/08/23 05:03:27;;;;;;;8.48;6.88;;;16.70;99.90;;;;;;5034032;28;20120;-71
2022/08/23 05:05:53;;;;;;;9.20;6.70;;;16.70;99.90;;;;;;5032744;28;20103;-71
2022/08/23 05:08:18;;;;;;;7.80;6.38;;;16.70;99.90;;;;;;5033023;28;20049;-71
2022/08/23 05:10:45;;;;;;;11.88;7.07;;;16.80;99.90;;;;;;5032556;28;20048;-71
2022/08/23 05:13:12;;;;;;;9.32;6.55;;;16.80;99.90;;;;;;5033956;28;20521;-71
2022/08/23 05:15:37;;;;;;;8.07;6.95;;;16.80;99.90;;;;;;5032631;28;20410;-72
2022/08/23 05:18:03;;;;;;;9.30;6.47;;;16.80;99.90;;;;;;5032458;28;20045;-71
2022/08/23 05:20:30;;;;;;;9.80;6.90;;;16.80;99.90;;;;;;5032547;28;20045;-71
2022/08/23 05:22:56;;;;;;;13.20;6.57;;;16.90;99.90;;;;;;5032805;28;20045;-71
2022/08/23 05:25:22;;;;;;;10.13;5.50;;;16.90;99.90;;;;;;5016086;28;20037;-71
2022/08/23 05:27:47;;;;;;;10.88;6.45;;;17.00;99.90;;;;;;5032403;28;20047;-71
2022/08/23 05:30:13;;;;;;;9.75;7.00;;;17.00;99.90;;;;;;5032700;28;20056;-71
2022/08/23 05:32:39;;;;;;;12.15;7.35;;;17.10;99.90;;;;;;5032344;28;20486;-71
2022/08/23 05:35:05;;;;;;;11.02;7.25;;;17.10;99.90;;;;;;5032605;28;20049;-71
2022/08/23 05:37:31;;;;;;;12.55;7.72;;;17.20;99.90;;;;;;5033287;28;20441;-71
2022/08/23 05:39:57;;;;;;;10.90;7.57;;;17.30;99.90;;;;;;5032252;28;20072;-72
2022/08/23 05:42:23;;;;;;;10.82;7.45;;;17.40;99.90;;;;;;5032241;28;20041;-71
2022/08/23 05:44:49;;;;;;;12.57;7.95;;;17.40;99.90;;;;;;5032413;28;20049;-71
2022/08/23 05:47:16;;;;;;;11.82;7.45;;;17.50;99.90;;;;;;5015630;28;20406;-71
2022/08/23 05:49:42;;;;;;;12.48;7.55;;;17.60;99.90;;;;;;5032064;28;20102;-71
2022/08/23 05:52:10;;;;;;;14.07;7.15;;;17.60;99.90;;;;;;5032083;28;20080;-71
2022/08/23 05:54:36;;;;;;;12.05;8.05;;;17.70;99.90;;;;;;5032062;28;20045;-72
2022/08/23 05:57:03;;;;;;;11.90;7.65;;;17.70;99.90;;;;;;5031955;28;20041;-71
2022/08/23 05:59:28;;;;;;;10.02;7.00;;;17.80;99.90;;;;;;5031959;28;20422;-71
2022/08/23 06:01:55;;;;;;;9.82;7.22;;;17.90;99.90;;;;;;5031936;28;20041;-71
2022/08/23 06:04:21;;;;;;;10.95;7.07;;;17.90;99.90;;;;;;5031928;28;20041;-71
2022/08/23 06:06:47;;;;;;;8.57;6.88;;;18.00;99.90;;;;;;5032129;28;20046;-71
2022/08/23 06:09:14;;;;;;;8.52;7.22;;;18.10;99.90;;;;;;5031852;28;20045;-72
2022/08/23 06:11:42;;;;;;;11.00;7.47;;;18.10;99.90;;;;;;5032112;28;20124;-72
2022/08/23 06:14:08;;;;;;;11.40;7.38;;;18.20;99.90;;;;;;5032212;28;20099;-71
2022/08/23 06:16:41;;;;;;;12.07;7.35;;;18.30;99.90;;;;;;5031814;28;20050;-74
2022/08/23 06:19:07;;;;;;;7.93;7.13;;;18.40;99.90;;;;;;5031784;28;20065;-71
2022/08/23 06:21:35;;;;;;;11.95;7.53;;;18.40;99.90;;;;;;5032339;28;20041;-71
2022/08/23 06:24:01;;;;;;;14.05;7.38;;;18.50;99.90;;;;;;5036161;28;20124;-71
2022/08/23 06:26:33;;;;;;;15.48;7.97;;;18.60;99.90;;;;;;5035891;28;20441;-71
2022/08/23 06:29:01;;;;;;;14.70;7.63;;;18.70;99.90;;;;;;5035854;28;20037;-71
2022/08/23 06:31:47;;;;;;;13.98;7.20;;;18.80;99.90;;;;;;5035796;28;20125;-72
2022/08/23 06:34:18;;;;;;;10.68;7.18;;;18.80;99.90;;;;;;5035775;28;20414;-73
2022/08/23 06:36:46;;;;;;;11.70;6.90;;;18.90;99.90;;;;;;5035785;28;20063;-71
2022/08/23 06:39:13;;;;;;;10.32;6.97;;;18.90;99.90;;;;;;5035644;28;20049;-72
2022/08/23 06:41:39;;;;;;;10.48;7.30;;;19.00;99.90;;;;;;5035610;28;20045;-72
2022/08/23 06:44:05;;;;;;;14.85;7.05;;;19.10;99.90;;;;;;5035560;28;20037;-72
2022/08/23 06:46:31;;;;;;;9.75;6.13;;;19.10;99.90;;;;;;5035805;28;20068;-72
2022/08/23 06:48:59;;;;;;;12.48;7.00;;;19.10;99.90;;;;;;5035598;28;20429;-71
2022/08/23 06:51:32;;;;;;;9.40;6.60;;;19.20;99.90;;;;;;5035622;28;20044;-72
2022/08/23 06:53:59;;;;;;;10.43;6.38;;;19.30;99.90;;;;;;5035662;28;20045;-72
2022/08/23 06:56:27;;;;;;;10.93;6.85;;;19.30;99.90;;;;;;5035404;28;20157;-72
2022/08/23 06:58:53;;;;;;;12.38;7.60;;;19.40;99.90;;;;;;5035090;28;20068;-71
2022/08/23 07:01:22;;;;;;;11.75;7.00;;;19.50;99.90;;;;;;5035512;28;20045;-72
2022/08/23 07:03:55;;;;;;;10.45;6.55;;;19.60;99.90;;;;;;5035189;28;20041;-72
2022/08/23 07:06:25;;;;;;;14.00;6.03;;;19.70;99.90;;;;;;5035475;28;20041;-72
2022/08/23 07:08:51;;;;;;;13.52;6.20;;;19.70;99.90;;;;;;5035008;28;20091;-72
2022/08/23 07:11:17;;;;;;;8.50;6.13;;;19.80;99.90;;;;;;5035043;28;20045;-73
2022/08/23 07:13:43;;;;;;;13.93;6.03;;;19.90;99.90;;;;;;5035006;28;20041;-72
2022/08/23 07:16:08;;;;;;;11.43;5.55;;;20.00;99.90;;;;;;5034899;28;20080;-73
2022/08/23 07:18:34;;;;;;;8.57;5.78;;;20.00;99.90;;;;;;5034754;28;20049;-72
2022/08/23 07:21:01;;;;;;;8.23;5.78;;;20.20;99.90;;;;;;5034870;28;20048;-73
2022/08/23 07:23:31;;;;;;;12.02;6.03;;;20.20;99.90;;;;;;5034861;28;20041;-73
2022/08/23 07:26:01;;;;;;;10.05;5.57;;;20.30;99.90;;;;;;5018342;28;20037;-73
2022/08/23 07:28:27;;;;;;;9.05;5.72;;;20.40;99.90;;;;;;5034527;28;20045;-72
2022/08/23 07:30:57;;;;;;;11.82;5.93;;;20.60;99.90;;;;;;5034665;28;20076;-72
2022/08/23 07:33:23;;;;;;;10.23;5.55;;;20.60;99.90;;;;;;5034138;28;20076;-73
2022/08/23 07:35:50;;;;;;;10.27;4.78;;;20.70;99.90;;;;;;5035402;28;20103;-72
2022/08/23 07:38:17;;;;;;;11.27;5.80;;;20.70;99.90;;;;;;5034212;28;20518;-72
2022/08/23 07:40:43;;;;;;;11.15;5.40;;;20.80;99.90;;;;;;5034509;28;20068;-74
2022/08/23 07:43:09;;;;;;;8.90;5.35;;;20.80;99.90;;;;;;5034435;28;20116;-74
2022/08/23 07:45:37;;;;;;;7.43;5.05;;;20.90;99.90;;;;;;5034343;28;20038;-75
2022/08/23 07:48:03;;;;;;;11.77;5.20;;;21.00;99.90;;;;;;5034547;28;20049;-74
2022/08/23 07:50:29;;;;;;;11.63;5.25;;;21.00;99.90;;;;;;5034323;28;20083;-74
2022/08/23 07:52:55;;;;;;;7.40;4.80;;;21.10;99.90;;;;;;5034686;28;20045;-74
2022/08/23 07:55:20;;;;;;;6.18;4.55;;;21.20;99.90;;;;;;5034312;28;20437;-74
2022/08/23 07:57:46;;;;;;;8.85;4.70;;;21.30;99.90;;;;;;5033973;28;20048;-74
2022/08/23 08:00:13;;;;;;;7.80;4.18;;;21.40;99.90;;;;;;5034137;28;20044;-75
2022/08/23 08:02:39;;;;;;;9.10;4.80;;;21.60;99.90;;;;;;5034393;28;20037;-75
2022/08/23 08:05:05;;;;;;;9.32;4.57;;;21.80;99.90;;;;;;5034033;28;20041;-74
2022/08/23 08:07:31;;;;;;;7.45;4.45;;;22.00;99.90;;;;;;5033954;28;20077;-73
2022/08/23 08:09:57;;;;;;;9.57;4.60;;;22.20;99.90;;;;;;5034011;28;20033;-74
2022/08/23 08:12:23;;;;;;;9.57;4.97;;;22.30;99.90;;;;;;5034148;28;20041;-74
2022/08/23 08:14:49;;;;;;;12.63;4.80;;;22.40;99.90;;;;;;5034008;28;20034;-74
2022/08/23 08:17:16;;;;;;;10.75;4.70;;;22.60;99.90;;;;;;5034018;28;20042;-74
2022/08/23 08:19:42;;;;;;;6.82;4.35;;;22.60;99.90;;;;;;5017440;28;20053;-74
2022/08/23 08:22:08;;;;;;;8.57;4.70;;;22.70;99.90;;;;;;5034079;28;20033;-74
2022/08/23 08:24:33;;;;;;;10.70;4.85;;;22.80;99.90;;;;;;5018082;28;20470;-74
2022/08/23 08:26:59;;;;;;;8.30;4.40;;;22.90;99.90;;;;;;5034110;28;20034;-73
2022/08/23 08:29:25;;;;;;;12.30;4.72;;;23.00;99.90;;;;;;5033889;28;20041;-74
2022/08/23 08:31:50;;;;;;;9.63;4.60;;;23.10;99.90;;;;;;5033818;28;20040;-74
2022/08/23 08:34:17;;;;;;;8.05;4.22;;;23.20;99.90;;;;;;5033541;28;20525;-74
2022/08/23 08:36:50;;;;;;;9.38;4.50;;;23.40;99.90;;;;;;5033507;28;20045;-74
2022/08/23 08:39:20;;;;;;;7.90;4.60;;;23.70;99.90;;;;;;5016873;28;20038;-74
2022/08/23 08:42:12;;;;;;;10.70;4.32;;;24.00;99.90;;;;;;5033358;28;20037;-74
2022/08/23 08:44:48;;;;;;;11.00;4.78;;;24.20;99.90;;;;;;5016223;28;20074;-74
2022/08/23 08:47:33;;;;;;;10.65;4.38;;;24.30;99.90;;;;;;5016712;28;20048;-74
2022/08/23 08:50:05;;;;;;;8.38;3.58;;;24.40;99.90;;;;;;5033481;28;20064;-74
2022/08/23 08:52:47;;;;;;;8.60;4.20;;;24.70;99.90;;;;;;5033153;28;20124;-75
2022/08/23 08:55:34;;;;;;;7.82;3.63;;;24.90;98.00;;;;;;5033176;28;20037;-75
2022/08/23 08:58:01;;;;;;;10.25;4.13;;;25.10;99.00;;;;;;5032888;28;20092;-74
2022/08/23 09:00:36;;;;;;;6.20;3.53;;;25.20;97.50;;;;;;5032970;28;20037;-74
2022/08/23 09:03:08;;;;;;;9.80;4.00;;;25.40;95.80;;;;;;5033023;28;20060;-74
2022/08/23 09:05:38;;;;;;;12.68;3.42;;;25.60;95.80;;;;;;5016537;28;20080;-74
2022/08/23 09:08:13;;;;;;;7.25;3.22;;;25.80;93.80;;;;;;5032861;28;20041;-73
2022/08/23 09:10:59;;;;;;;8.57;3.40;;;26.00;92.90;;;;;;5032775;28;20049;-74
2022/08/23 09:13:31;;;;;;;7.72;3.20;;;26.10;94.30;;;;;;5032780;28;20041;-74
2022/08/23 09:16:21;;;;;;;7.63;3.37;;;26.10;93.00;;;;;;5032742;28;20060;-73
2022/08/23 09:18:47;;;;;;;10.55;3.67;;;26.10;93.10;;;;;;5032663;28;20102;-73
2022/08/23 09:21:14;;;;;;;7.85;2.92;;;26.10;92.50;;;;;;5016189;28;20048;-74
2022/08/23 09:23:44;;;;;;;8.95;3.00;;;26.10;91.00;;;;;;5032599;28;20045;-74
2022/08/23 09:26:21;;;;;;;7.18;3.38;;;26.20;91.00;;;;;;5032792;28;20080;-73
2022/08/23 09:29:08;;;;;;;5.85;2.70;;;26.20;87.20;;;;;;5032430;28;20120;-74
2022/08/23 09:31:40;;;;;;;9.02;3.25;;;26.30;90.40;;;;;;5025268;28;20049;-75
2022/08/23 09:34:07;;;;;;;7.55;2.85;;;26.60;89.30;;;;;;5032841;28;20041;-74
2022/08/23 09:36:36;;;;;;;7.22;3.20;;;26.80;88.30;;;;;;5032186;28;20045;-73
2022/08/23 09:39:29;;;;;;;4.88;2.42;;;27.10;84.20;;;;;;5032308;28;20038;-71
2022/08/23 09:41:55;;;;;;;5.70;2.45;;;27.20;72.70;;;;;;5032314;28;20043;-71
2022/08/23 09:44:41;;;;;;;7.72;2.90;;;27.50;77.70;;;;;;5032230;28;20049;-71
2022/08/23 09:47:15;;;;;;;4.88;2.15;;;27.60;74.30;;;;;;5032061;28;20445;-71
2022/08/23 09:49:43;;;;;;;8.52;3.00;;;27.80;70.20;;;;;;5032199;28;20127;-71
2022/08/23 09:52:18;;;;;;;7.55;2.72;;;27.80;68.10;;;;;;5033667;28;20041;-71
2022/08/23 09:54:54;;;;;;;4.43;2.35;;;27.90;65.50;;;;;;5032409;28;20049;-73
2022/08/23 09:57:25;;;;;;;6.32;2.42;;;28.10;67.20;;;;;;5031852;28;20037;-71
2022/08/23 09:59:51;;;;;;;7.90;2.72;;;28.40;68.30;;;;;;5032008;28;20489;-71
2022/08/23 10:02:25;;;;;;;8.80;2.40;;;28.50;65.60;;;;;;5033796;28;20033;-74
2022/08/23 10:05:01;;;;;;;8.43;3.10;;;28.70;65.30;;;;;;5032045;28;20038;-71
2022/08/23 10:07:37;;;;;;;6.60;2.47;;;28.80;64.30;;;;;;5032156;28;20061;-71
2022/08/23 10:10:32;;;;;;;7.50;2.90;;;29.10;63.80;;;;;;5031917;28;20041;-72
2022/08/23 10:12:58;;;;;;;10.18;3.03;;;29.40;62.80;;;;;;4997620;28;20050;-72
2022/08/23 10:16:05;;;;;;;9.63;3.38;;;29.40;64.00;;;;;;5031936;28;20038;-72
2022/08/23 10:18:42;;;;;;;7.03;3.65;;;29.40;62.00;;;;;;5014683;28;20049;-71
2022/08/23 10:21:24;;;;;;;11.20;3.45;;;29.40;63.20;;;;;;5015668;28;20037;-72
2022/08/23 10:24:05;;;;;;;12.00;3.20;;;29.40;62.30;;;;;;5033302;28;20065;-72
2022/08/23 10:26:34;;;;;;;8.15;2.72;;;29.30;60.70;;;;;;5031757;28;20068;-72
2022/08/23 10:32:29;;;;;;;5.00;2.53;;;29.40;61.20;;;;;;4956213;28;20050;-72
2022/08/23 10:34:57;;;;;;;4.95;2.30;;;29.60;60.30;;;;;;4956002;28;20074;-72
2022/08/23 10:37:37;;;;;;;6.90;2.38;;;29.70;59.60;;;;;;4955895;28;20058;-73
2022/08/23 10:40:16;;;;;;;8.48;2.58;;;29.80;60.00;;;;;;4956027;28;20050;-72
2022/08/23 10:43:14;;;;;;;7.78;1.90;;;30.00;58.80;;;;;;4955902;28;20093;-72
2022/08/23 10:45:45;;;;;;;9.20;2.20;;;30.20;59.00;;;;;;4956010;28;20039;-72
2022/08/23 10:48:30;;;;;;;6.82;2.58;;;30.40;58.70;;;;;;4955950;28;20389;-72
2022/08/23 10:51:09;;;;;;;13.23;3.05;;;30.70;58.50;;;;;;4956100;28;20087;-72
2022/08/23 10:53:48;;;;;;;7.25;2.20;;;30.80;58.00;;;;;;4955907;28;20070;-72
2022/08/23 10:56:18;;;;;;;6.50;2.20;;;31.00;56.50;;;;;;4955913;28;20070;-72
2022/08/23 10:59:09;;;;;;;7.05;2.45;;;31.20;56.50;;;;;;4955626;28;20125;-72
2022/08/23 11:01:56;;;;;;;10.02;2.30;;;31.40;54.50;;;;;;4948299;28;20059;-72
2022/08/23 11:04:49;;;;;;;7.65;2.33;;;31.20;54.10;;;;;;5031770;28;20494;-72
2022/08/23 11:07:26;;;;;;;10.25;2.20;;;31.30;54.40;;;;;;5014814;28;20482;-72
2022/08/23 11:09:54;;;;;;;8.45;2.40;;;31.50;55.20;;;;;;5035168;28;20095;-72
2022/08/23 11:12:26;;;;;;;6.53;2.33;;;31.70;53.40;;;;;;5035335;28;20045;-72
2022/08/23 11:14:55;;;;;;;7.75;1.90;;;31.90;53.60;;;;;;5035045;28;20052;-72
2022/08/23 11:17:53;;;;;;;8.13;2.50;;;32.10;53.10;;;;;;5034891;28;20568;-71
2022/08/23 11:20:51;;;;;;;7.15;2.10;;;32.00;49.60;;;;;;5034979;28;20502;-72
2022/08/23 11:23:48;;;;;;;5.65;2.28;;;32.10;51.20;;;;;;5035179;28;20049;-72
2022/08/23 11:26:25;;;;;;;6.45;1.88;;;32.30;50.80;;;;;;5034805;28;20048;-72
2022/08/23 11:29:23;;;;;;;7.80;2.20;;;32.20;49.40;;;;;;5034856;28;20128;-72
2022/08/23 11:32:16;;;;;;;5.60;1.83;;;32.10;50.50;;;;;;5030954;28;20053;-72
2022/08/23 11:34:50;;;;;;;7.35;1.77;;;32.20;48.70;;;;;;5034742;28;20497;-72
2022/08/23 11:37:19;;;;;;;7.97;2.15;;;32.30;48.90;;;;;;5017864;28;20414;-74
2022/08/23 11:39:57;;;;;;;5.13;1.85;;;32.40;47.50;;;;;;5034475;28;20041;-72
2022/08/23 11:42:24;;;;;;;9.25;2.10;;;32.40;47.10;;;;;;5034499;28;20086;-72
2022/08/23 11:44:50;;;;;;;5.75;2.42;;;32.60;48.90;;;;;;5034462;28;20046;-71
2022/08/23 11:47:41;;;;;;;9.23;1.90;;;32.80;48.30;;;;;;5034343;28;20048;-72
2022/08/23 11:50:22;;;;;;;5.88;2.17;;;32.90;47.70;;;;;;5034698;28;20120;-72
2022/08/23 11:52:56;;;;;;;9.25;2.15;;;33.00;47.40;;;;;;5034422;28;20482;-72
2022/08/23 11:55:59;;;;;;;6.68;2.00;;;33.10;47.30;;;;;;5035623;28;20064;-72
2022/08/23 11:58:56;;;;;;;8.35;2.63;;;33.00;48.20;;;;;;5013772;28;20132;-72
2022/08/23 12:01:35;;;;;;;7.82;1.80;;;33.00;47.70;;;;;;5034270;28;20041;-72
2022/08/23 12:04:09;;;;;;;6.53;1.92;;;33.10;46.90;;;;;;5034168;28;20124;-72
2022/08/23 12:06:54;;;;;;;7.50;2.30;;;33.20;47.10;;;;;;5034042;28;20508;-71
2022/08/23 12:09:23;;;;;;;6.03;1.92;;;33.20;47.60;;;;;;5034337;28;20081;-72
2022/08/23 12:11:54;;;;;;;5.72;2.30;;;33.30;48.20;;;;;;5035235;28;20038;-72
2022/08/23 12:14:29;;;;;;;7.65;2.40;;;33.40;46.80;;;;;;5034264;28;20053;-72
2022/08/23 12:16:57;;;;;;;5.65;1.90;;;33.50;47.60;;;;;;5034056;28;20120;-71
2022/08/23 12:19:36;;;;;;;5.32;2.30;;;33.50;47.00;;;;;;5033817;28;20556;-72
2022/08/23 12:22:11;;;;;;;12.65;2.30;;;33.60;46.60;;;;;;5033832;28;20486;-72
2022/08/23 12:24:53;;;;;;;6.63;2.40;;;33.70;46.60;;;;;;5033778;28;20080;-72
2022/08/23 12:27:42;;;;;;;4.82;2.10;;;33.80;46.10;;;;;;5033973;28;20045;-71
2022/08/23 12:30:27;;;;;;;4.93;2.08;;;33.80;45.30;;;;;;5033632;28;20046;-72
2022/08/23 12:33:46;;;;;;;6.82;2.15;;;33.80;45.70;;;;;;5033643;28;20076;-72
2022/08/23 12:36:40;;;;;;;7.47;2.00;;;34.00;44.60;;;;;;4996481;28;20555;-72
2022/08/23 12:39:07;;;;;;;6.85;2.10;;;34.00;44.40;;;;;;4996402;28;20046;-72
2022/08/23 12:41:58;;;;;;;5.95;1.80;;;34.10;46.00;;;;;;4996542;28;20057;-72
2022/08/23 12:44:26;;;;;;;6.40;2.13;;;34.00;45.70;;;;;;4996335;28;20121;-72
2022/08/23 12:46:52;;;;;;;6.75;2.33;;;33.80;45.70;;;;;;5012565;28;20085;-72
2022/08/23 12:49:25;;;;;;;4.10;1.80;;;33.60;45.80;;;;;;4996173;28;20160;-72
2022/08/23 12:51:53;;;;;;;5.30;2.00;;;33.50;46.90;;;;;;4996166;28;20514;-72
2022/08/23 12:54:37;;;;;;;6.47;2.00;;;33.50;46.20;;;;;;4996194;28;20475;-72
2022/08/23 12:57:10;;;;;;;5.70;2.25;;;33.30;45.10;;;;;;4996841;28;20117;-72
2022/08/23 12:59:51;;;;;;;6.97;2.03;;;32.90;45.30;;;;;;4995942;28;20057;-72
2022/08/23 13:02:25;;;;;;;6.38;2.05;;;32.70;46.10;;;;;;4996220;28;20045;-72
2022/08/23 13:04:57;;;;;;;6.78;2.00;;;32.40;46.30;;;;;;4995968;28;20422;-72
2022/08/23 13:07:25;;;;;;;6.70;2.00;;;32.20;46.30;;;;;;5019870;28;20422;-72
2022/08/23 13:09:53;;;;;;;5.30;1.92;;;32.10;47.00;;;;;;5032794;28;20037;-72
2022/08/23 13:12:19;;;;;;;4.40;1.77;;;31.90;46.30;;;;;;5033940;28;20410;-72
2022/08/23 13:14:50;;;;;;;5.90;1.88;;;31.80;47.50;;;;;;5032970;28;20044;-72